createdAt,value
2019-02-09T00:01:10.562Z,2.00
2019-02-09T00:03:38.693Z,2.00
2019-02-09T00:06:06.985Z,2.00
2019-02-09T00:08:35.150Z,2.00
2019-02-09T00:11:03.577Z,1.90
2019-02-09T00:13:32.627Z,1.80
2019-02-09T00:16:00.799Z,1.70
2019-02-09T00:18:28.964Z,1.70
2019-02-09T00:20:57.247Z,1.70
2019-02-09T00:23:25.421Z,1.60
2019-02-09T00:25:53.633Z,1.50
2019-02-09T00:28:21.829Z,1.40
2019-02-09T00:30:50.739Z,1.40
2019-02-09T00:33:18.929Z,1.30
2019-02-09T00:35:47.412Z,1.30
2019-02-09T00:38:16.705Z,1.30
2019-02-09T00:40:44.894Z,1.20
2019-02-09T00:43:13.051Z,1.20
2019-02-09T00:45:41.532Z,1.10
2019-02-09T00:48:10.080Z,1.10
2019-02-09T00:50:39.744Z,1.10
2019-02-09T00:53:08.169Z,1.20
2019-02-09T00:55:36.756Z,1.10
2019-02-09T00:58:04.984Z,1.10
2019-02-09T01:00:34.474Z,1.30
2019-02-09T01:03:02.663Z,1.40
2019-02-09T01:05:32.953Z,1.40
2019-02-09T01:08:02.623Z,1.30
2019-02-09T01:10:30.990Z,1.30
2019-02-09T01:12:59.217Z,1.20
2019-02-09T01:15:27.402Z,1.20
2019-02-09T01:17:55.980Z,1.30
2019-02-09T01:20:24.262Z,1.40
2019-02-09T01:22:52.838Z,1.40
2019-02-09T01:25:21.018Z,1.50
2019-02-09T01:27:50.273Z,1.50
2019-02-09T01:30:22.499Z,1.50
2019-02-09T01:32:50.692Z,1.60
2019-02-09T01:35:18.838Z,1.60
2019-02-09T01:37:47.004Z,1.60
2019-02-09T01:40:20.197Z,1.60
2019-02-09T01:42:48.378Z,1.60
2019-02-09T01:45:24.225Z,1.60
2019-02-09T01:47:52.826Z,1.40
2019-02-09T01:50:21.343Z,1.30
2019-02-09T01:52:50.056Z,1.20
2019-02-09T01:55:18.263Z,1.20
2019-02-09T01:57:46.437Z,1.10
2019-02-09T02:00:33.302Z,1.10
2019-02-09T02:03:01.790Z,1.10
2019-02-09T02:05:29.996Z,1.20
2019-02-09T02:07:58.169Z,1.20
2019-02-09T02:10:28.373Z,1.30
2019-02-09T02:12:56.845Z,1.40
2019-02-09T02:15:25.541Z,1.40
2019-02-09T02:17:53.714Z,1.50
2019-02-09T02:20:23.114Z,1.70
2019-02-09T02:23:01.595Z,1.70
2019-02-09T02:25:29.815Z,1.80
2019-02-09T02:27:58.002Z,1.80
2019-02-09T02:30:31.076Z,1.90
2019-02-09T02:32:59.257Z,1.90
2019-02-09T02:35:27.420Z,2.00
2019-02-09T02:37:55.590Z,2.00
2019-02-09T02:40:23.815Z,2.10
2019-02-09T02:42:52.070Z,2.20
2019-02-09T02:45:20.256Z,2.20
2019-02-09T02:47:48.389Z,2.30
2019-02-09T02:50:17.787Z,2.30
2019-02-09T02:52:46.354Z,2.30
2019-02-09T02:55:16.601Z,2.40
2019-02-09T02:57:44.781Z,2.40
2019-02-09T03:00:16.546Z,2.40
2019-02-09T03:02:44.698Z,2.50
2019-02-09T03:05:15.624Z,2.50
2019-02-09T03:07:44.280Z,2.50
2019-02-09T03:10:12.512Z,2.60
2019-02-09T03:12:40.660Z,2.60
2019-02-09T03:15:17.106Z,2.60
2019-02-09T03:17:45.317Z,2.60
2019-02-09T03:20:15.422Z,2.60
2019-02-09T03:22:44.121Z,2.60
2019-02-09T03:25:14.805Z,2.70
2019-02-09T03:27:43.291Z,2.70
2019-02-09T03:30:12.839Z,2.70
2019-02-09T03:32:40.989Z,2.80
2019-02-09T03:35:10.250Z,2.80
2019-02-09T03:37:38.958Z,2.90
2019-02-09T03:40:09.497Z,2.90
2019-02-09T03:42:37.714Z,2.90
2019-02-09T03:45:08.088Z,2.90
2019-02-09T03:47:36.344Z,2.90
2019-02-09T03:50:06.002Z,2.90
2019-02-09T03:52:34.858Z,2.90
2019-02-09T03:55:03.470Z,2.90
2019-02-09T03:57:32.056Z,2.90
2019-02-09T04:00:00.485Z,2.90
2019-02-09T04:02:28.721Z,2.90
2019-02-09T04:04:56.887Z,3.00
2019-02-09T04:07:25.055Z,3.00
2019-02-09T04:09:53.233Z,2.90
2019-02-09T04:12:21.710Z,2.90
2019-02-09T04:14:49.887Z,2.90
2019-02-09T04:17:18.056Z,2.90
2019-02-09T04:19:46.246Z,2.90
2019-02-09T04:22:14.616Z,2.90
2019-02-09T04:24:42.791Z,2.90
2019-02-09T04:27:11.005Z,2.90
2019-02-09T04:29:39.138Z,2.90
2019-02-09T04:32:08.336Z,2.90
2019-02-09T04:34:36.517Z,2.90
2019-02-09T04:37:04.742Z,2.90
2019-02-09T04:39:32.847Z,2.90
2019-02-09T04:42:01.031Z,2.90
2019-02-09T04:44:29.494Z,2.90
2019-02-09T04:46:57.665Z,2.90
2019-02-09T04:49:26.223Z,2.90
2019-02-09T04:51:54.433Z,2.90
2019-02-09T04:54:22.618Z,3.00
2019-02-09T04:56:51.077Z,3.00
2019-02-09T04:59:19.250Z,3.00
2019-02-09T05:01:47.799Z,3.00
2019-02-09T05:04:16.494Z,3.00
2019-02-09T05:06:45.114Z,3.00
2019-02-09T05:09:13.584Z,3.00
2019-02-09T05:11:42.049Z,3.00
2019-02-09T05:14:10.252Z,3.00
2019-02-09T05:16:39.131Z,3.00
2019-02-09T05:19:07.605Z,2.90
2019-02-09T05:21:35.852Z,2.90
2019-02-09T05:24:04.522Z,2.90
2019-02-09T05:26:32.670Z,2.90
2019-02-09T05:29:01.118Z,3.00
2019-02-09T05:31:33.671Z,3.00
2019-02-09T05:34:01.883Z,3.00
2019-02-09T05:36:30.060Z,3.00
2019-02-09T05:39:02.525Z,3.00
2019-02-09T05:41:30.759Z,3.00
2019-02-09T05:43:58.979Z,3.10
2019-02-09T05:46:27.425Z,3.10
2019-02-09T05:48:55.637Z,3.20
2019-02-09T05:51:23.794Z,3.20
2019-02-09T05:53:52.366Z,3.30
2019-02-09T05:56:20.567Z,3.30
2019-02-09T05:58:48.722Z,3.40
2019-02-09T06:01:16.952Z,3.40
2019-02-09T06:03:45.581Z,3.40
2019-02-09T06:06:19.875Z,3.50
2019-02-09T06:08:48.386Z,3.50
2019-02-09T06:11:16.829Z,3.60
2019-02-09T06:13:46.916Z,3.60
2019-02-09T06:16:15.571Z,3.60
2019-02-09T06:19:03.368Z,3.60
2019-02-09T06:21:31.585Z,3.60
2019-02-09T06:23:59.832Z,3.70
2019-02-09T06:26:29.305Z,3.80
2019-02-09T06:28:57.541Z,3.90
2019-02-09T06:31:26.057Z,4.00
2019-02-09T06:33:54.809Z,4.10
2019-02-09T06:36:23.043Z,4.10
2019-02-09T06:38:51.267Z,4.20
2019-02-09T06:41:19.437Z,4.30
2019-02-09T06:43:48.151Z,4.30
2019-02-09T06:46:16.287Z,4.30
2019-02-09T06:48:45.524Z,4.30
2019-02-09T06:51:14.683Z,4.40
2019-02-09T06:53:42.887Z,4.50
2019-02-09T06:56:11.134Z,4.50
2019-02-09T06:58:39.700Z,4.50
2019-02-09T07:01:08.288Z,4.60
2019-02-09T07:03:36.865Z,4.60
2019-02-09T07:06:05.193Z,4.60
2019-02-09T07:08:33.448Z,4.70
2019-02-09T07:11:02.420Z,4.70
2019-02-09T07:13:31.062Z,4.90
2019-02-09T07:15:59.257Z,5.00
2019-02-09T07:18:27.598Z,5.00
2019-02-09T07:20:57.190Z,5.00
2019-02-09T07:23:25.419Z,5.00
2019-02-09T07:25:53.758Z,5.10
2019-02-09T07:28:22.195Z,5.10
2019-02-09T07:30:50.669Z,5.00
2019-02-09T07:33:19.901Z,5.00
2019-02-09T07:35:49.687Z,5.00
2019-02-09T07:38:18.829Z,5.10
2019-02-09T07:41:06.362Z,5.10
2019-02-09T07:43:34.580Z,5.50
2019-02-09T07:46:02.771Z,6.30
2019-02-09T07:48:31.765Z,7.00
2019-02-09T07:51:00.116Z,7.60
2019-02-09T07:53:28.581Z,8.30
2019-02-09T07:55:56.922Z,8.70
2019-02-09T07:58:25.394Z,9.00
2019-02-09T08:00:58.043Z,9.10
2019-02-09T08:03:26.549Z,9.00
2019-02-09T08:05:54.669Z,9.50
2019-02-09T08:08:23.287Z,10.10
2019-02-09T08:10:51.462Z,10.10
2019-02-09T08:13:19.733Z,9.90
2019-02-09T08:15:48.122Z,10.30
2019-02-09T08:18:17.091Z,10.60
2019-02-09T08:20:45.767Z,11.10
2019-02-09T08:23:13.959Z,11.50
2019-02-09T08:25:42.570Z,11.70
2019-02-09T08:28:10.825Z,11.70
2019-02-09T08:30:43.380Z,12.00
2019-02-09T08:33:11.575Z,12.10
2019-02-09T08:35:40.388Z,11.50
2019-02-09T08:38:09.436Z,11.20
2019-02-09T08:40:38.300Z,10.80
2019-02-09T08:43:06.521Z,10.50
2019-02-09T08:45:35.740Z,10.00
2019-02-09T08:48:03.879Z,9.30
2019-02-09T08:50:34.779Z,9.00
2019-02-09T08:53:03.676Z,8.80
2019-02-09T08:55:32.817Z,9.10
2019-02-09T08:58:01.996Z,8.90
2019-02-09T09:00:30.980Z,8.60
2019-02-09T09:02:59.484Z,8.20
2019-02-09T09:05:27.703Z,8.00
2019-02-09T09:07:55.943Z,7.90
2019-02-09T09:10:25.970Z,7.80
2019-02-09T09:12:54.410Z,7.80
2019-02-09T09:15:51.892Z,7.80
2019-02-09T09:18:20.263Z,7.90
2019-02-09T09:20:54.273Z,7.90
2019-02-09T09:23:22.434Z,7.90
2019-02-09T09:25:50.593Z,7.90
2019-02-09T09:28:18.844Z,7.90
2019-02-09T09:30:47.487Z,7.90
2019-02-09T09:33:15.906Z,7.90
2019-02-09T09:35:44.155Z,7.90
2019-02-09T09:38:12.287Z,7.90
2019-02-09T09:40:41.178Z,8.00
2019-02-09T09:43:09.626Z,8.10
2019-02-09T09:45:38.309Z,8.30
2019-02-09T09:48:08.365Z,8.50
2019-02-09T09:50:36.532Z,8.60
2019-02-09T09:53:04.785Z,8.90
2019-02-09T09:55:32.987Z,8.80
2019-02-09T09:58:01.156Z,8.80
2019-02-09T10:00:29.330Z,8.90
2019-02-09T10:02:57.528Z,9.30
2019-02-09T10:05:25.686Z,9.80
2019-02-09T10:07:53.865Z,11.00
2019-02-09T10:10:22.039Z,10.90
2019-02-09T10:12:50.507Z,10.60
2019-02-09T10:15:21.816Z,10.40
2019-02-09T10:17:50.930Z,10.60
2019-02-09T10:20:20.770Z,10.90
2019-02-09T10:22:48.957Z,11.80
2019-02-09T10:25:17.149Z,12.10
2019-02-09T10:27:45.586Z,12.40
2019-02-09T10:30:18.340Z,11.70
2019-02-09T10:32:46.838Z,10.90
2019-02-09T10:35:15.069Z,10.40
2019-02-09T10:37:43.274Z,10.00
2019-02-09T10:40:15.360Z,9.90
2019-02-09T10:42:43.835Z,9.90
2019-02-09T10:45:17.635Z,9.90
2019-02-09T10:47:45.872Z,10.10
2019-02-09T10:50:17.616Z,10.20
2019-02-09T10:52:45.753Z,10.60
2019-02-09T10:55:15.246Z,11.00
2019-02-09T10:57:44.074Z,11.50
2019-02-09T11:00:14.987Z,11.90
2019-02-09T11:02:42.537Z,12.20
2019-02-09T11:05:11.339Z,12.20
2019-02-09T11:07:39.507Z,12.40
2019-02-09T11:10:09.776Z,13.00
2019-02-09T11:12:37.908Z,13.10
2019-02-09T11:15:07.719Z,13.50
2019-02-09T11:17:36.907Z,13.20
2019-02-09T11:20:05.901Z,13.00
2019-02-09T11:22:34.447Z,12.90
2019-02-09T11:25:02.669Z,12.80
2019-02-09T11:27:31.898Z,12.40
2019-02-09T11:30:00.028Z,12.00
2019-02-09T11:32:28.204Z,11.60
2019-02-09T11:34:56.646Z,11.50
2019-02-09T11:37:25.088Z,11.30
2019-02-09T11:39:53.568Z,11.50
2019-02-09T11:42:21.717Z,11.40
2019-02-09T11:44:49.838Z,11.10
2019-02-09T11:47:18.061Z,11.00
2019-02-09T11:49:46.237Z,11.00
2019-02-09T11:52:14.799Z,10.90
2019-02-09T11:54:43.387Z,10.60
2019-02-09T11:57:11.578Z,10.40
2019-02-09T11:59:40.451Z,10.20
2019-02-09T12:02:08.641Z,10.00
2019-02-09T12:04:36.824Z,10.10
2019-02-09T12:07:05.275Z,10.10
2019-02-09T12:09:33.851Z,10.10
2019-02-09T12:12:02.423Z,10.20
2019-02-09T12:14:30.633Z,10.30
2019-02-09T12:16:58.808Z,10.30
2019-02-09T12:19:31.457Z,10.40
2019-02-09T12:22:00.582Z,10.50
2019-02-09T12:24:28.768Z,10.60
2019-02-09T12:26:57.943Z,10.60
2019-02-09T12:29:26.503Z,10.50
2019-02-09T12:31:55.107Z,10.40
2019-02-09T12:34:23.282Z,10.50
2019-02-09T12:36:51.467Z,10.50
2019-02-09T12:39:19.629Z,10.60
2019-02-09T12:41:47.835Z,10.70
2019-02-09T12:44:16.350Z,10.70
2019-02-09T12:46:44.495Z,10.80
2019-02-09T12:49:12.628Z,10.90
2019-02-09T12:51:40.817Z,10.80
2019-02-09T12:54:10.019Z,10.80
2019-02-09T12:56:38.204Z,10.60
2019-02-09T12:59:06.353Z,10.50
2019-02-09T13:01:34.537Z,10.60
2019-02-09T13:04:02.683Z,10.30
2019-02-09T13:06:30.875Z,10.20
2019-02-09T13:08:59.045Z,10.20
2019-02-09T13:11:27.548Z,10.40
2019-02-09T13:13:56.016Z,10.40
2019-02-09T13:16:26.223Z,10.50
2019-02-09T13:19:00.438Z,10.60
2019-02-09T13:21:30.045Z,10.70
2019-02-09T13:23:59.142Z,11.00
2019-02-09T13:26:27.826Z,11.60
2019-02-09T13:28:56.338Z,12.00
2019-02-09T13:31:25.071Z,12.50
2019-02-09T13:33:53.645Z,12.50
2019-02-09T13:36:21.851Z,12.80
2019-02-09T13:38:50.028Z,13.00
2019-02-09T13:41:18.598Z,13.30
2019-02-09T13:43:46.800Z,13.30
2019-02-09T13:46:15.249Z,13.50
2019-02-09T13:48:43.357Z,13.30
2019-02-09T13:51:11.516Z,13.00
2019-02-09T13:53:39.689Z,13.10
2019-02-09T13:56:08.904Z,13.30
2019-02-09T13:58:37.370Z,13.90
2019-02-09T14:01:05.811Z,13.50
2019-02-09T14:03:34.396Z,13.00
2019-02-09T14:06:08.359Z,12.50
2019-02-09T14:08:31.805Z,12.20
2019-02-09T14:11:00.474Z,12.20
2019-02-09T14:13:29.253Z,12.40
2019-02-09T14:15:58.459Z,12.30
2019-02-09T14:18:26.643Z,12.20
2019-02-09T14:20:54.824Z,12.30
2019-02-09T14:23:23.274Z,12.20
2019-02-09T14:25:51.803Z,11.60
2019-02-09T14:28:19.993Z,11.30
2019-02-09T14:30:48.219Z,11.20
2019-02-09T14:33:16.395Z,11.00
2019-02-09T14:35:44.563Z,10.80
2019-02-09T14:38:13.071Z,10.70
2019-02-09T14:40:41.218Z,10.60
2019-02-09T14:43:10.010Z,10.50
2019-02-09T14:45:40.144Z,10.40
2019-02-09T14:48:08.303Z,10.20
2019-02-09T14:50:36.447Z,10.20
2019-02-09T14:53:05.131Z,10.20
2019-02-09T14:55:35.170Z,10.10
2019-02-09T14:58:04.436Z,10.00
2019-02-09T15:00:37.975Z,10.00
2019-02-09T15:03:07.057Z,9.90
2019-02-09T15:05:35.262Z,9.90
2019-02-09T15:08:03.412Z,9.80
2019-02-09T15:10:32.508Z,9.80
2019-02-09T15:13:00.668Z,9.70
2019-02-09T15:15:31.706Z,9.70
2019-02-09T15:17:59.961Z,9.70
2019-02-09T15:20:31.141Z,9.60
2019-02-09T15:22:59.289Z,9.60
2019-02-09T15:25:29.440Z,9.50
2019-02-09T15:27:57.877Z,9.50
2019-02-09T15:30:27.437Z,9.50
2019-02-09T15:32:56.620Z,9.40
2019-02-09T15:35:25.812Z,9.30
2019-02-09T15:37:53.998Z,9.40
2019-02-09T15:40:23.257Z,9.30
2019-02-09T15:42:51.462Z,9.20
2019-02-09T15:45:19.937Z,9.10
2019-02-09T15:47:48.179Z,9.10
2019-02-09T15:50:16.414Z,9.00
2019-02-09T15:52:44.628Z,9.00
2019-02-09T15:55:14.387Z,9.00
2019-02-09T15:57:42.573Z,8.90
2019-02-09T16:00:21.867Z,8.90
2019-02-09T16:02:53.112Z,8.80
2019-02-09T16:05:20.577Z,8.80
2019-02-09T16:07:48.775Z,8.70
2019-02-09T16:10:37.347Z,8.60
2019-02-09T16:13:05.140Z,8.50
2019-02-09T16:15:34.783Z,8.50
2019-02-09T16:18:04.150Z,8.50
2019-02-09T16:20:32.360Z,8.50
2019-02-09T16:23:01.551Z,8.50
2019-02-09T16:25:29.728Z,8.50
2019-02-09T16:28:10.014Z,8.40
2019-02-09T16:30:38.246Z,8.40
2019-02-09T16:33:06.828Z,8.40
2019-02-09T16:35:35.015Z,8.30
2019-02-09T16:38:04.109Z,8.20
2019-02-09T16:40:32.293Z,8.20
2019-02-09T16:43:00.526Z,8.20
2019-02-09T16:45:30.461Z,8.20
2019-02-09T16:47:58.653Z,8.10
2019-02-09T16:50:26.831Z,8.10
2019-02-09T16:52:54.996Z,8.10
2019-02-09T16:55:23.210Z,8.10
2019-02-09T16:57:51.375Z,8.20
2019-02-09T17:00:25.031Z,8.10
2019-02-09T17:02:53.626Z,8.10
2019-02-09T17:05:22.197Z,8.10
2019-02-09T17:07:50.450Z,8.10
2019-02-09T17:10:18.712Z,8.10
2019-02-09T17:12:47.435Z,8.10
2019-02-09T17:15:18.388Z,8.10
2019-02-09T17:17:46.623Z,8.10
2019-02-09T17:20:14.900Z,8.10
2019-02-09T17:22:43.041Z,8.00
2019-02-09T17:25:11.655Z,8.00
2019-02-09T17:27:40.143Z,8.00
2019-02-09T17:30:15.225Z,7.90
2019-02-09T17:32:43.395Z,7.90
2019-02-09T17:35:11.621Z,7.90
2019-02-09T17:37:40.143Z,7.80
2019-02-09T17:40:10.653Z,7.80
2019-02-09T17:42:38.856Z,7.70
2019-02-09T17:45:11.548Z,7.70
2019-02-09T17:47:39.716Z,7.60
2019-02-09T17:50:09.518Z,7.50
2019-02-09T17:52:37.985Z,7.50
2019-02-09T17:55:07.257Z,7.50
2019-02-09T17:57:36.141Z,7.40
2019-02-09T18:00:06.920Z,7.40
2019-02-09T18:02:36.439Z,7.40
2019-02-09T18:05:04.993Z,7.30
2019-02-09T18:07:34.197Z,7.30
2019-02-09T18:10:03.418Z,7.20
2019-02-09T18:12:31.578Z,7.10
2019-02-09T18:15:00.287Z,7.00
2019-02-09T18:17:28.737Z,6.80
2019-02-09T18:19:57.319Z,6.50
2019-02-09T18:22:25.492Z,6.40
2019-02-09T18:24:54.082Z,6.40
2019-02-09T18:27:22.947Z,6.30
2019-02-09T18:29:51.163Z,6.30
2019-02-09T18:32:19.312Z,6.30
2019-02-09T18:34:56.073Z,6.20
2019-02-09T18:37:21.557Z,6.20
2019-02-09T18:39:49.843Z,6.10
2019-02-09T18:42:22.462Z,6.10
2019-02-09T18:44:50.914Z,6.10
2019-02-09T18:47:19.108Z,6.10
2019-02-09T18:49:47.372Z,6.10
2019-02-09T18:52:15.840Z,6.00
2019-02-09T18:54:44.330Z,6.00
2019-02-09T18:57:12.756Z,6.00
2019-02-09T18:59:42.163Z,6.00
2019-02-09T19:02:11.534Z,6.00
2019-02-09T19:04:40.019Z,5.90
2019-02-09T19:07:08.212Z,5.80
2019-02-09T19:09:36.742Z,5.80
2019-02-09T19:12:05.968Z,5.90
2019-02-09T19:14:34.127Z,5.90
2019-02-09T19:17:02.918Z,5.90
2019-02-09T19:19:37.150Z,5.80
2019-02-09T19:22:05.332Z,5.80
2019-02-09T19:24:33.522Z,5.80
2019-02-09T19:27:01.957Z,5.80
2019-02-09T19:29:30.175Z,5.70
2019-02-09T19:31:58.676Z,5.70
2019-02-09T19:34:27.184Z,5.70
2019-02-09T19:36:55.771Z,5.90
2019-02-09T19:39:24.312Z,6.00
2019-02-09T19:41:52.447Z,6.00
2019-02-09T19:44:20.644Z,6.10
2019-02-09T19:46:48.786Z,6.20
2019-02-09T19:49:17.756Z,6.30
2019-02-09T19:51:46.200Z,6.30
2019-02-09T19:54:14.618Z,6.40
2019-02-09T19:56:44.070Z,6.40
2019-02-09T19:59:13.316Z,6.40
2019-02-09T20:01:42.158Z,6.40
2019-02-09T20:04:10.619Z,6.40
2019-02-09T20:06:40.082Z,6.50
2019-02-09T20:09:08.330Z,6.60
2019-02-09T20:11:36.651Z,6.60
2019-02-09T20:14:06.247Z,6.60
2019-02-09T20:16:34.502Z,6.50
2019-02-09T20:19:03.729Z,6.60
2019-02-09T20:21:32.023Z,6.60
2019-02-09T20:24:00.239Z,6.50
2019-02-09T20:26:28.479Z,6.40
2019-02-09T20:28:58.069Z,6.40
2019-02-09T20:31:26.277Z,6.30
2019-02-09T20:33:54.427Z,6.30
2019-02-09T20:36:22.917Z,6.30
2019-02-09T20:38:52.181Z,6.30
2019-02-09T20:41:20.697Z,6.40
2019-02-09T20:43:49.206Z,6.40
2019-02-09T20:46:17.661Z,6.30
2019-02-09T20:48:45.900Z,6.30
2019-02-09T20:51:14.138Z,6.20
2019-02-09T20:53:42.913Z,6.20
2019-02-09T20:56:11.317Z,6.20
2019-02-09T20:58:39.596Z,6.10
2019-02-09T21:01:07.808Z,5.90
2019-02-09T21:03:35.991Z,5.90
2019-02-09T21:06:04.218Z,5.80
2019-02-09T21:08:32.467Z,5.60
2019-02-09T21:11:01.676Z,5.30
2019-02-09T21:13:31.852Z,5.20
2019-02-09T21:16:19.459Z,5.10
2019-02-09T21:18:48.449Z,5.00
2019-02-09T21:21:16.713Z,4.90
2019-02-09T21:23:44.986Z,4.90
2019-02-09T21:26:13.142Z,4.90
2019-02-09T21:28:41.289Z,4.90
2019-02-09T21:31:09.523Z,5.00
2019-02-09T21:33:37.722Z,5.10
2019-02-09T21:36:06.175Z,5.20
2019-02-09T21:38:34.378Z,5.40
2019-02-09T21:41:02.528Z,5.30
2019-02-09T21:43:31.105Z,5.30
2019-02-09T21:45:59.304Z,5.30
2019-02-09T21:48:27.521Z,5.20
2019-02-09T21:50:56.039Z,5.30
2019-02-09T21:53:24.236Z,5.30
2019-02-09T21:55:52.707Z,5.30
2019-02-09T21:58:20.879Z,5.30
2019-02-09T22:00:49.073Z,5.30
2019-02-09T22:03:17.524Z,5.30
2019-02-09T22:05:51.815Z,5.30
2019-02-09T22:08:19.606Z,5.20
2019-02-09T22:10:44.341Z,5.10
2019-02-09T22:13:13.054Z,5.00
2019-02-09T22:15:41.678Z,4.80
2019-02-09T22:18:09.855Z,4.60
2019-02-09T22:20:38.041Z,4.40
2019-02-09T22:23:06.309Z,4.20
2019-02-09T22:25:35.494Z,4.20
2019-02-09T22:28:03.738Z,4.10
2019-02-09T22:30:31.981Z,4.00
2019-02-09T22:33:01.198Z,4.10
2019-02-09T22:35:29.349Z,4.00
2019-02-09T22:37:57.521Z,4.10
2019-02-09T22:40:27.719Z,4.20
2019-02-09T22:42:55.901Z,4.20
2019-02-09T22:45:24.072Z,4.20
2019-02-09T22:47:52.255Z,4.20
2019-02-09T22:50:22.651Z,4.20
2019-02-09T22:52:51.227Z,4.20
2019-02-09T22:55:19.477Z,4.20
2019-02-09T22:57:48.198Z,4.20
2019-02-09T23:00:20.452Z,4.10
2019-02-09T23:02:48.659Z,4.10
2019-02-09T23:05:38.489Z,4.00
2019-02-09T23:08:07.631Z,4.00
2019-02-09T23:10:35.801Z,4.00
2019-02-09T23:13:03.962Z,4.00
2019-02-09T23:15:32.519Z,4.00
2019-02-09T23:18:00.786Z,4.00
2019-02-09T23:20:29.022Z,3.80
2019-02-09T23:22:57.202Z,3.80
2019-02-09T23:25:25.383Z,3.80
2019-02-09T23:27:53.876Z,3.90
2019-02-09T23:30:23.300Z,4.00
2019-02-09T23:32:51.716Z,4.10
2019-02-09T23:35:19.887Z,4.20
2019-02-09T23:37:48.064Z,4.20
2019-02-09T23:40:16.264Z,4.30
2019-02-09T23:42:46.656Z,4.30
2019-02-09T23:45:14.846Z,4.20
2019-02-09T23:47:44.344Z,4.20
2019-02-09T23:50:12.912Z,4.10
2019-02-09T23:52:41.100Z,4.10
2019-02-09T23:55:09.634Z,4.10
2019-02-09T23:57:37.898Z,4.10
